PWSweather.com
Personal Weather Stations
Station Observations
IMAZOWIE6
WarszawaPL

WarszawaPL

Lat: 52.27957, Lon: 21.05489

Elevation: 100

Station Type: WS1080

http://stacjapogody.waw.pl/

High Low Average
Temperature 83.5°F28.6°C 55.4°F13.0°C 70.6°F21.4°C
Dew Point 21.1°F-6.1°C -167.3°F-110.7°C -133.2°F-91.8°C
Winds 4.8 mph 7.7 kmh Calm Calm 1.0 mph N1.6 kmh N
Wind Gusts 9.6 mph15.4 kmh -- 3.0 mph4.8 kmh
Humidity 19% 10% 15%
Pressure 29.58 in1001.7 mb 29.25 in990.5 mb -
Precipitation 0.00 in0.0 mm - -
Hour Temp Dew Point Humidity Winds Wind Gusts Pressure Precip Precip Rate Daily Precip Total
12:04 AM 57.9°F14.4°C -167.0°F-110.6°C - Calm Calm 0.6 mph1.0 kmh 29.58 in1001.7 mb 0.00 in0.0 mm 0.00 in0.0 mm 0.00 in0.0 mm
12:19 AM 57.6°F14.2°C -167.0°F-110.6°C - 0.6 mph N1.0 kmh N 2.8 mph4.5 kmh 29.58 in1001.7 mb 0.00 in0.0 mm 0.00 in0.0 mm 0.00 in0.0 mm
12:34 AM 57.2°F14.0°C -167.1°F-110.6°C - Calm Calm 0.6 mph1.0 kmh 29.57 in1001.4 mb 0.00 in0.0 mm 0.00 in0.0 mm 0.00 in0.0 mm
12:49 AM 57.0°F13.9°C -167.1°F-110.6°C - 0.6 mph N1.0 kmh N 2.8 mph4.5 kmh 29.57 in1001.4 mb 0.00 in0.0 mm 0.00 in0.0 mm 0.00 in0.0 mm
01:04 AM 57.0°F13.9°C -167.1°F-110.6°C - Calm Calm 1.4 mph2.3 kmh 29.57 in1001.4 mb 0.00 in0.0 mm 0.00 in0.0 mm 0.00 in0.0 mm
01:19 AM 57.0°F13.9°C -167.1°F-110.6°C - Calm Calm 0.6 mph1.0 kmh 29.56 in1001.0 mb 0.00 in0.0 mm 0.00 in0.0 mm 0.00 in0.0 mm
01:34 AM 57.4°F14.1°C -167.1°F-110.6°C - 0.6 mph N1.0 kmh N 2.8 mph4.5 kmh 29.56 in1001.0 mb 0.00 in0.0 mm 0.00 in0.0 mm 0.00 in0.0 mm
01:49 AM 57.2°F14.0°C -167.1°F-110.6°C - Calm Calm 0.6 mph1.0 kmh 29.55 in1000.7 mb 0.00 in0.0 mm 0.00 in0.0 mm 0.00 in0.0 mm
02:04 AM 57.0°F13.9°C -167.1°F-110.6°C - Calm Calm 1.4 mph2.3 kmh 29.55 in1000.7 mb 0.00 in0.0 mm 0.00 in0.0 mm 0.00 in0.0 mm
02:19 AM 56.5°F13.6°C -167.2°F-110.7°C - Calm Calm 2.0 mph3.2 kmh 29.54 in1000.3 mb 0.00 in0.0 mm 0.00 in0.0 mm 0.00 in0.0 mm
02:35 AM 56.3°F13.5°C -167.2°F-110.7°C - Calm Calm 0.6 mph1.0 kmh 29.54 in1000.3 mb 0.00 in0.0 mm 0.00 in0.0 mm 0.00 in0.0 mm
02:49 AM 56.1°F13.4°C -167.2°F-110.7°C - Calm Calm 2.0 mph3.2 kmh 29.53 in1000.0 mb 0.00 in0.0 mm 0.00 in0.0 mm 0.00 in0.0 mm
03:04 AM 56.1°F13.4°C -167.2°F-110.7°C - Calm Calm 1.4 mph2.3 kmh 29.53 in1000.0 mb 0.00 in0.0 mm 0.00 in0.0 mm 0.00 in0.0 mm
03:19 AM 55.9°F13.3°C -167.2°F-110.7°C - 0.6 mph N1.0 kmh N 2.8 mph4.5 kmh 29.52 in999.7 mb 0.00 in0.0 mm 0.00 in0.0 mm 0.00 in0.0 mm
03:34 AM 55.4°F13.0°C -167.3°F-110.7°C - Calm Calm 1.4 mph2.3 kmh 29.52 in999.7 mb 0.00 in0.0 mm 0.00 in0.0 mm 0.00 in0.0 mm
03:49 AM 55.8°F13.2°C -167.2°F-110.7°C - Calm Calm 1.4 mph2.3 kmh 29.52 in999.7 mb 0.00 in0.0 mm 0.00 in0.0 mm 0.00 in0.0 mm
04:04 AM 55.8°F13.2°C -167.2°F-110.7°C - Calm Calm 1.4 mph2.3 kmh 29.52 in999.7 mb 0.00 in0.0 mm 0.00 in0.0 mm 0.00 in0.0 mm
04:19 AM 55.6°F13.1°C -167.2°F-110.7°C - 0.6 mph N1.0 kmh N 1.4 mph2.3 kmh 29.52 in999.7 mb 0.00 in0.0 mm 0.00 in0.0 mm 0.00 in0.0 mm
04:34 AM 56.5°F13.6°C -167.2°F-110.7°C - Calm Calm 1.4 mph2.3 kmh 29.52 in999.7 mb 0.00 in0.0 mm 0.00 in0.0 mm 0.00 in0.0 mm
04:49 AM 58.8°F14.9°C -166.9°F-110.5°C - Calm Calm -- 29.51 in999.3 mb 0.00 in0.0 mm 0.00 in0.0 mm 0.00 in0.0 mm
05:04 AM 61.5°F16.4°C -166.6°F-110.3°C - Calm Calm 0.6 mph1.0 kmh 29.51 in999.3 mb 0.00 in0.0 mm 0.00 in0.0 mm 0.00 in0.0 mm
05:19 AM 62.4°F16.9°C -166.6°F-110.3°C - Calm Calm 2.0 mph3.2 kmh 29.51 in999.3 mb 0.00 in0.0 mm 0.00 in0.0 mm 0.00 in0.0 mm
05:34 AM 63.1°F17.3°C -166.5°F-110.3°C - 0.6 mph N1.0 kmh N 2.8 mph4.5 kmh 29.50 in999.0 mb 0.00 in0.0 mm 0.00 in0.0 mm 0.00 in0.0 mm
05:49 AM 65.7°F18.7°C -166.2°F-110.1°C - 1.4 mph N2.3 kmh N 3.4 mph5.5 kmh 29.49 in998.6 mb 0.00 in0.0 mm 0.00 in0.0 mm 0.00 in0.0 mm
06:04 AM 66.2°F19.0°C -166.2°F-110.1°C - Calm Calm 1.4 mph2.3 kmh 29.49 in998.6 mb 0.00 in0.0 mm 0.00 in0.0 mm 0.00 in0.0 mm
06:19 AM 66.6°F19.2°C -166.1°F-110.1°C - Calm Calm 1.4 mph2.3 kmh 29.49 in998.6 mb 0.00 in0.0 mm 0.00 in0.0 mm 0.00 in0.0 mm
06:34 AM 68.5°F20.3°C -165.9°F-109.9°C - Calm Calm 2.0 mph3.2 kmh 29.49 in998.6 mb 0.00 in0.0 mm 0.00 in0.0 mm 0.00 in0.0 mm
06:49 AM 74.5°F23.6°C -165.4°F-109.7°C - 1.4 mph N2.3 kmh N 3.4 mph5.5 kmh 29.48 in998.3 mb 0.00 in0.0 mm 0.00 in0.0 mm 0.00 in0.0 mm
07:04 AM 70.7°F21.5°C -165.7°F-109.8°C - 1.4 mph N2.3 kmh N 4.8 mph7.7 kmh 29.48 in998.3 mb 0.00 in0.0 mm 0.00 in0.0 mm 0.00 in0.0 mm
07:19 AM 70.7°F21.5°C -165.7°F-109.8°C - 0.6 mph N1.0 kmh N 2.8 mph4.5 kmh 29.47 in998.0 mb 0.01 in0.3 mm 0.05 in1.3 mm 0.01 in0.3 mm
07:34 AM 70.9°F21.6°C -165.7°F-109.8°C - Calm Calm 1.4 mph2.3 kmh 29.48 in998.3 mb 0.01 in0.3 mm 0.00 in0.0 mm 0.01 in0.3 mm
07:49 AM 71.6°F22.0°C -165.6°F-109.8°C - 1.4 mph N2.3 kmh N 4.0 mph6.4 kmh 29.47 in998.0 mb 0.01 in0.3 mm 0.00 in0.0 mm 0.01 in0.3 mm
08:04 AM 71.8°F22.1°C -165.6°F-109.8°C - 0.6 mph N1.0 kmh N 4.0 mph6.4 kmh 29.47 in998.0 mb 0.01 in0.3 mm 0.00 in0.0 mm 0.01 in0.3 mm
08:19 AM 74.1°F23.4°C -165.4°F-109.7°C - Calm Calm 1.4 mph2.3 kmh 29.47 in998.0 mb 0.00 in0.0 mm 0.00 in0.0 mm 0.01 in0.3 mm
08:34 AM 74.5°F23.6°C -165.4°F-109.7°C - 0.6 mph N1.0 kmh N 2.8 mph4.5 kmh 29.46 in997.6 mb 0.00 in0.0 mm 0.00 in0.0 mm 0.01 in0.3 mm
08:49 AM 74.7°F23.7°C -165.3°F-109.6°C - 1.4 mph N2.3 kmh N 2.8 mph4.5 kmh 29.46 in997.6 mb 0.00 in0.0 mm 0.00 in0.0 mm 0.01 in0.3 mm
09:04 AM 76.1°F24.5°C -165.2°F-109.6°C - 0.6 mph N1.0 kmh N 2.0 mph3.2 kmh 29.45 in997.3 mb 0.00 in0.0 mm 0.00 in0.0 mm 0.01 in0.3 mm
09:19 AM 79.0°F26.1°C -164.9°F-109.4°C - Calm Calm 1.4 mph2.3 kmh 29.45 in997.3 mb 0.00 in0.0 mm 0.00 in0.0 mm 0.01 in0.3 mm
09:34 AM 80.1°F26.7°C -164.8°F-109.3°C - 0.6 mph N1.0 kmh N 2.8 mph4.5 kmh 29.44 in997.0 mb 0.00 in0.0 mm 0.00 in0.0 mm 0.01 in0.3 mm
09:49 AM 81.7°F27.6°C -164.6°F-109.2°C - 2.8 mph N4.5 kmh N 5.4 mph8.7 kmh 29.44 in997.0 mb 0.00 in0.0 mm 0.00 in0.0 mm 0.01 in0.3 mm
10:04 AM 83.5°F28.6°C -164.5°F-109.2°C - 2.8 mph N4.5 kmh N 5.4 mph8.7 kmh 29.43 in996.6 mb 0.00 in0.0 mm 0.00 in0.0 mm 0.01 in0.3 mm
10:19 AM 80.8°F27.1°C -164.7°F-109.3°C - 0.6 mph N1.0 kmh N 2.0 mph3.2 kmh 29.42 in996.3 mb 0.00 in0.0 mm 0.00 in0.0 mm 0.01 in0.3 mm
10:34 AM 83.3°F28.5°C -164.5°F-109.2°C - 3.4 mph N5.5 kmh N 6.2 mph10.0 kmh 29.42 in996.3 mb 0.00 in0.0 mm 0.00 in0.0 mm 0.01 in0.3 mm
10:49 AM 80.1°F26.7°C -164.8°F-109.3°C - 1.4 mph N2.3 kmh N 2.8 mph4.5 kmh 29.42 in996.3 mb 0.00 in0.0 mm 0.00 in0.0 mm 0.01 in0.3 mm
11:04 AM 79.0°F26.1°C -164.9°F-109.4°C - Calm Calm 1.4 mph2.3 kmh 29.41 in995.9 mb 0.00 in0.0 mm 0.00 in0.0 mm 0.01 in0.3 mm
11:19 AM 78.4°F25.8°C -165.0°F-109.4°C - 0.6 mph N1.0 kmh N 3.4 mph5.5 kmh 29.40 in995.6 mb 0.00 in0.0 mm 0.00 in0.0 mm 0.01 in0.3 mm
11:34 AM 79.3°F26.3°C -164.9°F-109.4°C - 1.4 mph N2.3 kmh N 5.4 mph8.7 kmh 29.39 in995.3 mb 0.00 in0.0 mm 0.00 in0.0 mm 0.01 in0.3 mm
11:49 AM 81.9°F27.7°C -164.6°F-109.2°C - 2.0 mph N3.2 kmh N 4.8 mph7.7 kmh 29.39 in995.3 mb 0.00 in0.0 mm 0.00 in0.0 mm 0.01 in0.3 mm
12:04 PM 81.0°F27.2°C -164.7°F-109.3°C - Calm Calm 0.6 mph1.0 kmh 29.38 in994.9 mb 0.00 in0.0 mm 0.00 in0.0 mm 0.01 in0.3 mm
12:19 PM 82.9°F28.3°C -164.5°F-109.2°C - 0.6 mph N1.0 kmh N 3.4 mph5.5 kmh 29.38 in994.9 mb 0.00 in0.0 mm 0.00 in0.0 mm 0.01 in0.3 mm
12:34 PM 82.4°F28.0°C -164.6°F-109.2°C - 2.0 mph N3.2 kmh N 4.0 mph6.4 kmh 29.38 in994.9 mb 0.00 in0.0 mm 0.00 in0.0 mm 0.01 in0.3 mm
12:49 PM 81.7°F27.6°C -164.6°F-109.2°C - 0.6 mph N1.0 kmh N 2.0 mph3.2 kmh 29.37 in994.6 mb 0.00 in0.0 mm 0.00 in0.0 mm 0.01 in0.3 mm
01:04 PM 81.1°F27.3°C -164.7°F-109.3°C - 0.6 mph N1.0 kmh N 2.8 mph4.5 kmh 29.37 in994.6 mb 0.00 in0.0 mm 0.00 in0.0 mm 0.01 in0.3 mm
01:19 PM 82.6°F28.1°C -164.5°F-109.2°C - 1.4 mph N2.3 kmh N 3.4 mph5.5 kmh 29.36 in994.2 mb 0.00 in0.0 mm 0.00 in0.0 mm 0.01 in0.3 mm
01:34 PM 81.7°F27.6°C -164.6°F-109.2°C - 0.6 mph N1.0 kmh N 2.8 mph4.5 kmh 29.35 in993.9 mb 0.00 in0.0 mm 0.00 in0.0 mm 0.01 in0.3 mm
01:49 PM 82.0°F27.8°C -164.6°F-109.2°C - 1.4 mph N2.3 kmh N 3.4 mph5.5 kmh 29.35 in993.9 mb 0.00 in0.0 mm 0.00 in0.0 mm 0.01 in0.3 mm
02:04 PM 83.3°F28.5°C -164.5°F-109.2°C - 4.0 mph N6.4 kmh N 8.2 mph13.2 kmh 29.34 in993.6 mb 0.00 in0.0 mm 0.00 in0.0 mm 0.01 in0.3 mm
02:19 PM 82.6°F28.1°C -164.5°F-109.2°C - 1.4 mph N2.3 kmh N 2.8 mph4.5 kmh 29.34 in993.6 mb 0.00 in0.0 mm 0.00 in0.0 mm 0.01 in0.3 mm
02:34 PM 81.7°F27.6°C -164.6°F-109.2°C - 2.0 mph N3.2 kmh N 4.8 mph7.7 kmh 29.33 in993.2 mb 0.00 in0.0 mm 0.00 in0.0 mm 0.01 in0.3 mm
02:49 PM 81.7°F27.6°C -164.6°F-109.2°C - 1.4 mph N2.3 kmh N 3.4 mph5.5 kmh 29.32 in992.9 mb 0.00 in0.0 mm 0.00 in0.0 mm 0.01 in0.3 mm
03:04 PM 81.3°F27.4°C -164.7°F-109.3°C - 2.0 mph N3.2 kmh N 5.4 mph8.7 kmh 29.31 in992.6 mb 0.00 in0.0 mm 0.00 in0.0 mm 0.01 in0.3 mm
03:19 PM 81.1°F27.3°C -164.7°F-109.3°C - 2.8 mph N4.5 kmh N 4.0 mph6.4 kmh 29.31 in992.6 mb 0.00 in0.0 mm 0.00 in0.0 mm 0.01 in0.3 mm
03:34 PM 80.8°F27.1°C -164.7°F-109.3°C - 0.6 mph N1.0 kmh N 3.4 mph5.5 kmh 29.30 in992.2 mb 0.00 in0.0 mm 0.00 in0.0 mm 0.01 in0.3 mm
03:49 PM 80.6°F27.0°C -164.7°F-109.3°C - 1.4 mph N2.3 kmh N 4.0 mph6.4 kmh 29.30 in992.2 mb 0.00 in0.0 mm 0.00 in0.0 mm 0.01 in0.3 mm
04:04 PM 80.6°F27.0°C -164.7°F-109.3°C - 0.6 mph N1.0 kmh N 2.0 mph3.2 kmh 29.29 in991.9 mb 0.00 in0.0 mm 0.00 in0.0 mm 0.01 in0.3 mm
04:19 PM 80.1°F26.7°C -164.8°F-109.3°C - Calm Calm 0.6 mph1.0 kmh 29.29 in991.9 mb 0.00 in0.0 mm 0.00 in0.0 mm 0.01 in0.3 mm
04:34 PM 78.3°F25.7°C -165.0°F-109.4°C - Calm Calm 1.4 mph2.3 kmh 29.28 in991.5 mb 0.00 in0.0 mm 0.00 in0.0 mm 0.01 in0.3 mm
04:49 PM 78.4°F25.8°C -165.0°F-109.4°C - 0.6 mph N1.0 kmh N 2.0 mph3.2 kmh 29.28 in991.5 mb 0.00 in0.0 mm 0.00 in0.0 mm 0.01 in0.3 mm
05:04 PM 78.6°F25.9°C -164.9°F-109.4°C - 0.6 mph N1.0 kmh N 4.0 mph6.4 kmh 29.27 in991.2 mb 0.00 in0.0 mm 0.00 in0.0 mm 0.01 in0.3 mm
05:19 PM 78.6°F25.9°C -164.9°F-109.4°C - 1.4 mph N2.3 kmh N 3.4 mph5.5 kmh 29.28 in991.5 mb 0.00 in0.0 mm 0.00 in0.0 mm 0.01 in0.3 mm
05:34 PM 76.6°F24.8°C -165.1°F-109.5°C - 2.8 mph N4.5 kmh N 6.8 mph10.9 kmh 29.27 in991.2 mb 0.00 in0.0 mm 0.00 in0.0 mm 0.01 in0.3 mm
05:49 PM 75.4°F24.1°C -165.3°F-109.6°C - 1.4 mph N2.3 kmh N 4.0 mph6.4 kmh 29.26 in990.9 mb 0.00 in0.0 mm 0.00 in0.0 mm 0.01 in0.3 mm
06:04 PM 74.1°F23.4°C -165.4°F-109.7°C - 0.6 mph N1.0 kmh N 2.8 mph4.5 kmh 29.26 in990.9 mb 0.00 in0.0 mm 0.00 in0.0 mm 0.01 in0.3 mm
06:19 PM 73.4°F23.0°C -165.5°F-109.7°C - 0.6 mph N1.0 kmh N 2.8 mph4.5 kmh 29.25 in990.5 mb 0.00 in0.0 mm 0.00 in0.0 mm 0.01 in0.3 mm
06:34 PM 72.0°F22.2°C -165.6°F-109.8°C - 4.8 mph N7.7 kmh N 9.6 mph15.4 kmh 29.31 in992.6 mb 0.01 in0.3 mm 0.05 in1.3 mm 0.02 in0.5 mm
06:49 PM 69.1°F20.6°C -165.9°F-109.9°C - 0.6 mph N1.0 kmh N 2.0 mph3.2 kmh 29.30 in992.2 mb 0.12 in3.0 mm 0.44 in11.2 mm 0.14 in3.6 mm
07:04 PM 68.4°F20.2°C -166.0°F-110.0°C - Calm Calm 2.0 mph3.2 kmh 29.31 in992.6 mb 0.12 in3.0 mm 0.00 in0.0 mm 0.14 in3.6 mm
07:19 PM 68.5°F20.3°C -165.9°F-109.9°C - 1.4 mph N2.3 kmh N 4.0 mph6.4 kmh 29.31 in992.6 mb 0.01 in0.3 mm 0.00 in0.0 mm 0.14 in3.6 mm
07:34 PM 69.1°F20.6°C -165.9°F-109.9°C - Calm Calm 2.0 mph3.2 kmh 29.30 in992.2 mb 0.02 in0.5 mm 0.05 in1.3 mm 0.15 in3.8 mm
07:49 PM 68.7°F20.4°C 10.0°F-12.2°C 10% 1.4 mph N2.3 kmh N 2.8 mph4.5 kmh 29.29 in991.9 mb 0.04 in1.0 mm 0.05 in1.3 mm 0.16 in4.1 mm
08:04 PM 68.5°F20.3°C 13.9°F-10.1°C 12% 1.4 mph N2.3 kmh N 2.8 mph4.5 kmh 29.29 in991.9 mb 0.04 in1.0 mm 0.00 in0.0 mm 0.16 in4.1 mm
08:19 PM 68.5°F20.3°C 15.8°F-9.0°C 13% 1.4 mph N2.3 kmh N 2.8 mph4.5 kmh 29.29 in991.9 mb 0.00 in0.0 mm 0.00 in0.0 mm 0.16 in4.1 mm
08:34 PM 68.7°F20.4°C 17.6°F-8.0°C 14% 1.4 mph N2.3 kmh N 3.4 mph5.5 kmh 29.30 in992.2 mb 0.00 in0.0 mm 0.00 in0.0 mm 0.16 in4.1 mm
08:49 PM 68.7°F20.4°C 17.6°F-8.0°C 14% 2.8 mph N4.5 kmh N 6.8 mph10.9 kmh 29.31 in992.6 mb 0.00 in0.0 mm 0.00 in0.0 mm 0.16 in4.1 mm
09:04 PM 68.9°F20.5°C 16.0°F-8.9°C 13% 2.0 mph N3.2 kmh N 4.8 mph7.7 kmh 29.31 in992.6 mb 0.00 in0.0 mm 0.00 in0.0 mm 0.16 in4.1 mm
09:19 PM 68.7°F20.4°C 15.9°F-8.9°C 13% 1.4 mph N2.3 kmh N 4.0 mph6.4 kmh 29.32 in992.9 mb 0.00 in0.0 mm 0.00 in0.0 mm 0.16 in4.1 mm
09:34 PM 68.4°F20.2°C 17.3°F-8.2°C 14% 0.6 mph N1.0 kmh N 3.4 mph5.5 kmh 29.33 in993.2 mb 0.00 in0.0 mm 0.00 in0.0 mm 0.16 in4.1 mm
09:49 PM 68.2°F20.1°C 17.2°F-8.2°C 14% 2.0 mph N3.2 kmh N 3.4 mph5.5 kmh 29.33 in993.2 mb 0.00 in0.0 mm 0.00 in0.0 mm 0.16 in4.1 mm
10:04 PM 67.6°F19.8°C 18.3°F-7.6°C 15% 0.6 mph N1.0 kmh N 2.8 mph4.5 kmh 29.33 in993.2 mb 0.00 in0.0 mm 0.00 in0.0 mm 0.16 in4.1 mm
10:19 PM 67.5°F19.7°C 19.7°F-6.8°C 16% 2.0 mph N3.2 kmh N 4.0 mph6.4 kmh 29.34 in993.6 mb 0.00 in0.0 mm 0.00 in0.0 mm 0.16 in4.1 mm
10:34 PM 66.2°F19.0°C 20.0°F-6.7°C 17% Calm Calm 2.0 mph3.2 kmh 29.34 in993.6 mb 0.00 in0.0 mm 0.00 in0.0 mm 0.16 in4.1 mm
10:49 PM 64.9°F18.3°C 19.0°F-7.2°C 17% Calm Calm 0.6 mph1.0 kmh 29.35 in993.9 mb 0.00 in0.0 mm 0.00 in0.0 mm 0.16 in4.1 mm
11:04 PM 64.9°F18.3°C 20.3°F-6.5°C 18% Calm Calm 2.0 mph3.2 kmh 29.36 in994.2 mb 0.00 in0.0 mm 0.00 in0.0 mm 0.16 in4.1 mm
11:19 PM 64.4°F18.0°C 21.1°F-6.1°C 19% 2.8 mph N4.5 kmh N 6.2 mph10.0 kmh 29.36 in994.2 mb 0.00 in0.0 mm 0.00 in0.0 mm 0.16 in4.1 mm
11:34 PM 63.7°F17.6°C 20.5°F-6.4°C 19% 2.0 mph N3.2 kmh N 8.2 mph13.2 kmh 29.37 in994.6 mb 0.00 in0.0 mm 0.00 in0.0 mm 0.16 in4.1 mm
11:49 PM 63.1°F17.3°C 18.8°F-7.3°C 18% Calm Calm 1.4 mph2.3 kmh 29.38 in994.9 mb 0.00 in0.0 mm 0.00 in0.0 mm 0.16 in4.1 mm